sensor_id;sensor_type;location;lat;lon;timestamp;P1;durP1;ratioP1;P2;durP2;ratioP2
63693;SDS011;49839;51.798;10.954;2023-03-01T07:41:08;18.58;;;8.75;;
63693;SDS011;49839;51.798;10.954;2023-03-01T07:43:36;18.00;;;9.20;;
63693;SDS011;49839;51.798;10.954;2023-03-01T07:46:04;15.80;;;8.23;;
63693;SDS011;49839;51.798;10.954;2023-03-01T07:48:32;15.80;;;8.55;;
63693;SDS011;49839;51.798;10.954;2023-03-01T07:51:00;14.70;;;8.10;;
63693;SDS011;49839;51.798;10.954;2023-03-01T07:53:28;14.30;;;8.07;;
63693;SDS011;49839;51.798;10.954;2023-03-01T07:56:00;16.50;;;9.52;;
63693;SDS011;49839;51.798;10.954;2023-03-01T07:58:29;23.77;;;9.73;;
63693;SDS011;49839;51.798;10.954;2023-03-01T08:01:00;22.65;;;10.05;;
63693;SDS011;49839;51.798;10.954;2023-03-01T08:03:27;17.20;;;9.00;;
63693;SDS011;49839;51.798;10.954;2023-03-01T08:05:55;15.23;;;8.75;;
63693;SDS011;49839;51.798;10.954;2023-03-01T08:08:22;12.55;;;8.15;;
63693;SDS011;49839;51.798;10.954;2023-03-01T08:10:50;15.93;;;7.90;;
63693;SDS011;49839;51.798;10.954;2023-03-01T08:13:17;15.13;;;7.63;;
63693;SDS011;49839;51.798;10.954;2023-03-01T08:15:50;11.57;;;6.50;;
63693;SDS011;49839;51.798;10.954;2023-03-01T08:18:17;10.20;;;6.45;;
63693;SDS011;49839;51.798;10.954;2023-03-01T08:20:45;12.80;;;7.63;;
63693;SDS011;49839;51.798;10.954;2023-03-01T08:23:13;11.95;;;6.95;;
63693;SDS011;49839;51.798;10.954;2023-03-01T08:25:40;12.48;;;7.63;;
63693;SDS011;49839;51.798;10.954;2023-03-01T08:28:08;13.57;;;7.70;;
63693;SDS011;49839;51.798;10.954;2023-03-01T08:30:35;14.45;;;8.50;;
63693;SDS011;49839;51.798;10.954;2023-03-01T08:33:04;13.23;;;8.10;;
63693;SDS011;49839;51.798;10.954;2023-03-01T08:35:32;14.68;;;8.05;;
63693;SDS011;49839;51.798;10.954;2023-03-01T08:37:59;13.00;;;7.78;;
63693;SDS011;49839;51.798;10.954;2023-03-01T08:40:26;14.15;;;7.78;;
63693;SDS011;49839;51.798;10.954;2023-03-01T08:42:54;10.50;;;6.63;;
63693;SDS011;49839;51.798;10.954;2023-03-01T08:45:21;13.45;;;7.35;;
63693;SDS011;49839;51.798;10.954;2023-03-01T08:47:51;10.15;;;6.50;;
63693;SDS011;49839;51.798;10.954;2023-03-01T08:50:20;12.25;;;6.45;;
63693;SDS011;49839;51.798;10.954;2023-03-01T08:52:50;9.85;;;6.13;;
63693;SDS011;49839;51.798;10.954;2023-03-01T08:55:18;9.40;;;5.97;;
63693;SDS011;49839;51.798;10.954;2023-03-01T08:57:45;10.88;;;5.63;;
63693;SDS011;49839;51.798;10.954;2023-03-01T09:00:13;11.43;;;5.68;;
63693;SDS011;49839;51.798;10.954;2023-03-01T09:02:41;9.43;;;4.90;;
63693;SDS011;49839;51.798;10.954;2023-03-01T09:05:09;9.50;;;5.50;;
63693;SDS011;49839;51.798;10.954;2023-03-01T09:07:38;9.57;;;5.90;;
63693;SDS011;49839;51.798;10.954;2023-03-01T09:10:06;9.65;;;5.45;;
63693;SDS011;49839;51.798;10.954;2023-03-01T09:12:33;9.32;;;5.28;;
63693;SDS011;49839;51.798;10.954;2023-03-01T09:15:01;11.63;;;5.63;;
63693;SDS011;49839;51.798;10.954;2023-03-01T09:17:28;9.88;;;5.60;;
63693;SDS011;49839;51.798;10.954;2023-03-01T09:19:55;11.45;;;5.97;;
63693;SDS011;49839;51.798;10.954;2023-03-01T09:22:23;9.02;;;5.43;;
63693;SDS011;49839;51.798;10.954;2023-03-01T09:24:52;9.85;;;5.55;;
63693;SDS011;49839;51.798;10.954;2023-03-01T09:29:48;9.63;;;5.70;;
63693;SDS011;49839;51.798;10.954;2023-03-01T09:32:16;9.05;;;5.15;;
63693;SDS011;49839;51.798;10.954;2023-03-01T09:34:43;11.45;;;5.60;;
63693;SDS011;49839;51.798;10.954;2023-03-01T09:37:31;9.60;;;5.82;;
63693;SDS011;49839;51.798;10.954;2023-03-01T09:40:00;9.82;;;5.53;;
63693;SDS011;49839;51.798;10.954;2023-03-01T09:42:29;10.88;;;5.55;;
63693;SDS011;49839;51.798;10.954;2023-03-01T09:44:59;8.90;;;5.25;;
63693;SDS011;49839;51.798;10.954;2023-03-01T09:47:29;9.75;;;5.32;;
63693;SDS011;49839;51.798;10.954;2023-03-01T09:49:58;8.47;;;5.03;;
63693;SDS011;49839;51.798;10.954;2023-03-01T09:52:29;8.45;;;5.50;;
63693;SDS011;49839;51.798;10.954;2023-03-01T09:55:01;8.73;;;5.50;;
63693;SDS011;49839;51.798;10.954;2023-03-01T09:57:36;9.32;;;5.20;;
63693;SDS011;49839;51.798;10.954;2023-03-01T10:00:11;10.27;;;5.88;;
63693;SDS011;49839;51.798;10.954;2023-03-01T10:02:41;8.77;;;5.40;;
63693;SDS011;49839;51.798;10.954;2023-03-01T10:05:14;9.30;;;6.07;;
63693;SDS011;49839;51.798;10.954;2023-03-01T10:07:44;9.40;;;5.68;;
63693;SDS011;49839;51.798;10.954;2023-03-01T10:10:25;9.90;;;5.88;;
63693;SDS011;49839;51.798;10.954;2023-03-01T10:12:53;9.27;;;5.47;;
63693;SDS011;49839;51.798;10.954;2023-03-01T10:15:22;10.45;;;5.22;;
63693;SDS011;49839;51.798;10.954;2023-03-01T10:17:52;10.13;;;5.65;;
63693;SDS011;49839;51.798;10.954;2023-03-01T10:20:23;9.52;;;5.10;;
63693;SDS011;49839;51.798;10.954;2023-03-01T10:22:51;9.47;;;5.50;;
63693;SDS011;49839;51.798;10.954;2023-03-01T10:25:27;8.15;;;5.18;;
63693;SDS011;49839;51.798;10.954;2023-03-01T10:27:59;8.68;;;5.60;;
63693;SDS011;49839;51.798;10.954;2023-03-01T10:30:30;9.27;;;4.82;;
63693;SDS011;49839;51.798;10.954;2023-03-01T10:32:59;8.82;;;5.00;;
63693;SDS011;49839;51.798;10.954;2023-03-01T10:35:29;12.18;;;5.10;;
63693;SDS011;49839;51.798;10.954;2023-03-01T10:38:02;8.88;;;5.55;;
63693;SDS011;49839;51.798;10.954;2023-03-01T10:40:31;9.45;;;5.18;;
63693;SDS011;49839;51.798;10.954;2023-03-01T10:42:59;8.45;;;5.32;;
63693;SDS011;49839;51.798;10.954;2023-03-01T10:45:31;8.20;;;4.85;;
63693;SDS011;49839;51.798;10.954;2023-03-01T10:48:08;9.80;;;5.35;;
63693;SDS011;49839;51.798;10.954;2023-03-01T10:50:37;9.32;;;5.40;;
63693;SDS011;49839;51.798;10.954;2023-03-01T10:53:18;8.57;;;5.13;;
63693;SDS011;49839;51.798;10.954;2023-03-01T10:55:56;8.55;;;4.78;;
63693;SDS011;49839;51.798;10.954;2023-03-01T10:58:23;8.98;;;5.43;;
63693;SDS011;49839;51.798;10.954;2023-03-01T11:00:51;8.85;;;5.28;;
63693;SDS011;49839;51.798;10.954;2023-03-01T11:03:21;10.83;;;5.77;;
63693;SDS011;49839;51.798;10.954;2023-03-01T11:06:03;8.35;;;5.18;;
63693;SDS011;49839;51.798;10.954;2023-03-01T11:08:35;11.35;;;6.38;;
63693;SDS011;49839;51.798;10.954;2023-03-01T11:11:05;10.52;;;5.60;;
63693;SDS011;49839;51.798;10.954;2023-03-01T11:13:32;10.10;;;5.20;;
63693;SDS011;49839;51.798;10.954;2023-03-01T11:16:03;11.18;;;6.03;;
63693;SDS011;49839;51.798;10.954;2023-03-01T11:18:33;9.02;;;5.20;;
63693;SDS011;49839;51.798;10.954;2023-03-01T11:21:13;9.82;;;5.90;;
63693;SDS011;49839;51.798;10.954;2023-03-01T11:23:42;8.13;;;5.13;;
63693;SDS011;49839;51.798;10.954;2023-03-01T11:26:13;10.93;;;5.90;;
63693;SDS011;49839;51.798;10.954;2023-03-01T11:28:45;9.05;;;5.35;;
63693;SDS011;49839;51.798;10.954;2023-03-01T11:31:15;11.55;;;5.72;;
63693;SDS011;49839;51.798;10.954;2023-03-01T11:33:44;9.80;;;5.80;;
63693;SDS011;49839;51.798;10.954;2023-03-01T11:36:16;9.73;;;5.60;;
63693;SDS011;49839;51.798;10.954;2023-03-01T11:38:45;9.30;;;5.40;;
63693;SDS011;49839;51.798;10.954;2023-03-01T11:41:16;11.07;;;6.18;;
63693;SDS011;49839;51.798;10.954;2023-03-01T11:43:47;10.57;;;5.97;;
63693;SDS011;49839;51.798;10.954;2023-03-01T11:46:24;9.73;;;5.90;;
63693;SDS011;49839;51.798;10.954;2023-03-01T11:48:57;10.57;;;5.82;;
63693;SDS011;49839;51.798;10.954;2023-03-01T11:51:33;10.40;;;4.90;;
63693;SDS011;49839;51.798;10.954;2023-03-01T11:54:06;8.05;;;4.80;;
63693;SDS011;49839;51.798;10.954;2023-03-01T11:56:39;9.90;;;4.85;;
63693;SDS011;49839;51.798;10.954;2023-03-01T12:01:58;8.10;;;4.50;;
63693;SDS011;49839;51.798;10.954;2023-03-01T12:07:21;11.73;;;5.63;;
63693;SDS011;49839;51.798;10.954;2023-03-01T12:09:55;10.60;;;5.50;;
63693;SDS011;49839;51.798;10.954;2023-03-01T12:12:33;12.23;;;5.60;;
63693;SDS011;49839;51.798;10.954;2023-03-01T12:15:08;9.52;;;5.32;;
63693;SDS011;49839;51.798;10.954;2023-03-01T12:20:25;12.70;;;6.10;;
63693;SDS011;49839;51.798;10.954;2023-03-01T12:22:59;11.95;;;6.32;;
63693;SDS011;49839;51.798;10.954;2023-03-01T12:25:45;9.15;;;4.60;;
63693;SDS011;49839;51.798;10.954;2023-03-01T12:28:19;8.20;;;4.57;;
63693;SDS011;49839;51.798;10.954;2023-03-01T12:30:57;10.50;;;5.20;;
63693;SDS011;49839;51.798;10.954;2023-03-01T12:33:29;9.70;;;4.32;;
63693;SDS011;49839;51.798;10.954;2023-03-01T12:36:07;8.98;;;4.70;;
63693;SDS011;49839;51.798;10.954;2023-03-01T12:38:37;11.43;;;5.18;;
63693;SDS011;49839;51.798;10.954;2023-03-01T12:43:54;9.05;;;4.57;;
63693;SDS011;49839;51.798;10.954;2023-03-01T12:46:28;9.20;;;3.05;;
63693;SDS011;49839;51.798;10.954;2023-03-01T12:49:02;7.95;;;4.18;;
63693;SDS011;49839;51.798;10.954;2023-03-01T12:51:33;9.10;;;4.38;;
63693;SDS011;49839;51.798;10.954;2023-03-01T12:54:02;8.13;;;4.18;;
63693;SDS011;49839;51.798;10.954;2023-03-01T12:56:32;7.53;;;3.88;;
63693;SDS011;49839;51.798;10.954;2023-03-01T13:01:41;8.93;;;4.00;;
63693;SDS011;49839;51.798;10.954;2023-03-01T13:04:15;7.97;;;3.60;;
63693;SDS011;49839;51.798;10.954;2023-03-01T13:06:45;7.88;;;3.60;;
63693;SDS011;49839;51.798;10.954;2023-03-01T13:09:18;8.45;;;3.85;;
63693;SDS011;49839;51.798;10.954;2023-03-01T13:11:47;7.97;;;3.63;;
63693;SDS011;49839;51.798;10.954;2023-03-01T13:17:02;8.18;;;3.58;;
63693;SDS011;49839;51.798;10.954;2023-03-01T13:19:29;8.80;;;3.83;;
63693;SDS011;49839;51.798;10.954;2023-03-01T13:21:58;9.97;;;4.70;;
63693;SDS011;49839;51.798;10.954;2023-03-01T13:24:27;8.15;;;3.90;;
63693;SDS011;49839;51.798;10.954;2023-03-01T13:27:11;7.22;;;3.95;;
63693;SDS011;49839;51.798;10.954;2023-03-01T13:29:46;8.57;;;3.83;;
63693;SDS011;49839;51.798;10.954;2023-03-01T13:32:22;8.80;;;3.97;;
63693;SDS011;49839;51.798;10.954;2023-03-01T13:37:49;9.75;;;3.97;;
63693;SDS011;49839;51.798;10.954;2023-03-01T13:43:22;10.68;;;4.38;;
63693;SDS011;49839;51.798;10.954;2023-03-01T13:45:54;10.23;;;4.38;;
63693;SDS011;49839;51.798;10.954;2023-03-01T13:48:24;8.50;;;4.00;;
63693;SDS011;49839;51.798;10.954;2023-03-01T13:50:52;8.40;;;3.45;;
63693;SDS011;49839;51.798;10.954;2023-03-01T13:53:21;8.65;;;4.00;;
63693;SDS011;49839;51.798;10.954;2023-03-01T13:55:50;7.55;;;3.03;;
63693;SDS011;49839;51.798;10.954;2023-03-01T13:58:21;10.57;;;3.72;;
63693;SDS011;49839;51.798;10.954;2023-03-01T14:00:57;6.65;;;3.08;;
63693;SDS011;49839;51.798;10.954;2023-03-01T14:03:26;7.75;;;3.17;;
63693;SDS011;49839;51.798;10.954;2023-03-01T14:05:58;6.43;;;3.00;;
63693;SDS011;49839;51.798;10.954;2023-03-01T14:08:39;7.88;;;4.03;;
63693;SDS011;49839;51.798;10.954;2023-03-01T14:11:21;8.48;;;3.90;;
63693;SDS011;49839;51.798;10.954;2023-03-01T14:13:56;6.68;;;3.33;;
63693;SDS011;49839;51.798;10.954;2023-03-01T14:16:30;7.70;;;3.67;;
63693;SDS011;49839;51.798;10.954;2023-03-01T14:19:04;7.90;;;3.90;;
63693;SDS011;49839;51.798;10.954;2023-03-01T14:21:36;8.45;;;3.50;;
63693;SDS011;49839;51.798;10.954;2023-03-01T14:24:04;6.43;;;3.35;;
63693;SDS011;49839;51.798;10.954;2023-03-01T14:26:32;6.75;;;3.20;;
63693;SDS011;49839;51.798;10.954;2023-03-01T14:29:02;6.68;;;3.35;;
63693;SDS011;49839;51.798;10.954;2023-03-01T14:31:35;6.15;;;3.05;;
63693;SDS011;49839;51.798;10.954;2023-03-01T14:34:20;6.50;;;3.05;;
63693;SDS011;49839;51.798;10.954;2023-03-01T14:36:47;6.57;;;3.00;;
63693;SDS011;49839;51.798;10.954;2023-03-01T14:39:16;5.55;;;2.40;;
63693;SDS011;49839;51.798;10.954;2023-03-01T14:41:43;8.55;;;3.55;;
63693;SDS011;49839;51.798;10.954;2023-03-01T14:44:12;6.00;;;2.85;;
63693;SDS011;49839;51.798;10.954;2023-03-01T14:46:42;10.30;;;3.97;;
63693;SDS011;49839;51.798;10.954;2023-03-01T14:49:12;6.85;;;3.20;;
63693;SDS011;49839;51.798;10.954;2023-03-01T14:51:43;6.90;;;3.03;;
63693;SDS011;49839;51.798;10.954;2023-03-01T14:54:18;9.68;;;3.63;;
63693;SDS011;49839;51.798;10.954;2023-03-01T14:56:47;7.75;;;3.50;;
63693;SDS011;49839;51.798;10.954;2023-03-01T14:59:14;6.40;;;3.00;;
63693;SDS011;49839;51.798;10.954;2023-03-01T15:01:42;7.80;;;3.28;;
63693;SDS011;49839;51.798;10.954;2023-03-01T15:04:11;7.60;;;3.88;;
63693;SDS011;49839;51.798;10.954;2023-03-01T15:06:40;7.95;;;3.72;;
63693;SDS011;49839;51.798;10.954;2023-03-01T15:09:12;8.52;;;3.70;;
63693;SDS011;49839;51.798;10.954;2023-03-01T15:11:41;7.95;;;3.63;;
63693;SDS011;49839;51.798;10.954;2023-03-01T15:14:25;6.05;;;3.08;;
63693;SDS011;49839;51.798;10.954;2023-03-01T15:16:53;8.25;;;3.35;;
63693;SDS011;49839;51.798;10.954;2023-03-01T15:19:20;7.93;;;3.78;;
63693;SDS011;49839;51.798;10.954;2023-03-01T15:21:49;6.50;;;3.35;;
63693;SDS011;49839;51.798;10.954;2023-03-01T15:24:20;7.20;;;3.38;;
63693;SDS011;49839;51.798;10.954;2023-03-01T15:26:50;7.63;;;3.53;;
63693;SDS011;49839;51.798;10.954;2023-03-01T15:29:21;9.00;;;3.53;;
63693;SDS011;49839;51.798;10.954;2023-03-01T15:31:56;9.27;;;4.10;;
63693;SDS011;49839;51.798;10.954;2023-03-01T15:34:24;7.78;;;3.38;;
63693;SDS011;49839;51.798;10.954;2023-03-01T15:36:52;6.00;;;3.05;;
63693;SDS011;49839;51.798;10.954;2023-03-01T15:42:08;6.70;;;2.90;;
63693;SDS011;49839;51.798;10.954;2023-03-01T15:44:36;8.88;;;3.83;;
63693;SDS011;49839;51.798;10.954;2023-03-01T15:47:22;9.68;;;3.22;;
63693;SDS011;49839;51.798;10.954;2023-03-01T15:49:51;10.18;;;4.18;;
63693;SDS011;49839;51.798;10.954;2023-03-01T15:52:22;9.65;;;3.78;;
63693;SDS011;49839;51.798;10.954;2023-03-01T15:54:56;8.25;;;4.25;;
63693;SDS011;49839;51.798;10.954;2023-03-01T15:57:25;9.55;;;4.60;;
63693;SDS011;49839;51.798;10.954;2023-03-01T15:59:54;7.88;;;4.00;;
63693;SDS011;49839;51.798;10.954;2023-03-01T16:02:22;8.57;;;3.67;;
63693;SDS011;49839;51.798;10.954;2023-03-01T16:04:51;7.93;;;4.05;;
63693;SDS011;49839;51.798;10.954;2023-03-01T16:07:19;8.27;;;3.80;;
63693;SDS011;49839;51.798;10.954;2023-03-01T16:09:47;8.27;;;4.00;;
63693;SDS011;49839;51.798;10.954;2023-03-01T16:12:15;7.97;;;3.95;;
63693;SDS011;49839;51.798;10.954;2023-03-01T16:14:44;7.95;;;4.00;;
63693;SDS011;49839;51.798;10.954;2023-03-01T16:17:13;8.57;;;3.90;;
63693;SDS011;49839;51.798;10.954;2023-03-01T16:19:41;8.85;;;4.40;;
63693;SDS011;49839;51.798;10.954;2023-03-01T16:22:09;9.27;;;3.53;;
63693;SDS011;49839;51.798;10.954;2023-03-01T16:24:36;9.07;;;4.15;;
63693;SDS011;49839;51.798;10.954;2023-03-01T16:27:05;8.55;;;4.55;;
63693;SDS011;49839;51.798;10.954;2023-03-01T16:29:32;10.55;;;4.47;;
63693;SDS011;49839;51.798;10.954;2023-03-01T16:32:01;7.25;;;3.33;;
63693;SDS011;49839;51.798;10.954;2023-03-01T16:34:29;10.13;;;3.97;;
63693;SDS011;49839;51.798;10.954;2023-03-01T16:36:56;7.80;;;3.33;;
63693;SDS011;49839;51.798;10.954;2023-03-01T16:39:25;10.93;;;4.50;;
63693;SDS011;49839;51.798;10.954;2023-03-01T16:41:52;7.25;;;3.67;;
63693;SDS011;49839;51.798;10.954;2023-03-01T16:44:20;7.30;;;3.35;;
63693;SDS011;49839;51.798;10.954;2023-03-01T16:46:47;8.27;;;4.13;;
63693;SDS011;49839;51.798;10.954;2023-03-01T16:49:16;10.18;;;4.82;;
63693;SDS011;49839;51.798;10.954;2023-03-01T16:51:43;8.43;;;3.85;;
63693;SDS011;49839;51.798;10.954;2023-03-01T16:54:10;11.02;;;5.45;;
63693;SDS011;49839;51.798;10.954;2023-03-01T16:56:39;9.43;;;4.18;;
63693;SDS011;49839;51.798;10.954;2023-03-01T16:59:06;10.73;;;4.38;;
63693;SDS011;49839;51.798;10.954;2023-03-01T17:01:34;11.63;;;4.35;;
63693;SDS011;49839;51.798;10.954;2023-03-01T17:04:05;8.15;;;3.92;;
63693;SDS011;49839;51.798;10.954;2023-03-01T17:06:34;9.45;;;3.90;;
63693;SDS011;49839;51.798;10.954;2023-03-01T17:09:02;11.98;;;5.60;;
63693;SDS011;49839;51.798;10.954;2023-03-01T17:11:29;13.68;;;6.13;;
63693;SDS011;49839;51.798;10.954;2023-03-01T17:13:57;8.25;;;4.28;;
63693;SDS011;49839;51.798;10.954;2023-03-01T17:16:24;10.52;;;4.35;;
63693;SDS011;49839;51.798;10.954;2023-03-01T17:18:53;8.95;;;4.43;;
63693;SDS011;49839;51.798;10.954;2023-03-01T17:21:20;11.05;;;4.88;;
63693;SDS011;49839;51.798;10.954;2023-03-01T17:23:49;12.60;;;5.90;;
63693;SDS011;49839;51.798;10.954;2023-03-01T17:26:18;10.77;;;5.55;;
63693;SDS011;49839;51.798;10.954;2023-03-01T17:28:45;14.05;;;5.78;;
63693;SDS011;49839;51.798;10.954;2023-03-01T17:31:17;12.82;;;6.35;;
63693;SDS011;49839;51.798;10.954;2023-03-01T17:33:45;12.25;;;6.18;;
63693;SDS011;49839;51.798;10.954;2023-03-01T17:36:13;15.95;;;8.20;;
63693;SDS011;49839;51.798;10.954;2023-03-01T17:38:40;19.33;;;9.20;;
63693;SDS011;49839;51.798;10.954;2023-03-01T17:41:09;23.73;;;12.55;;
63693;SDS011;49839;51.798;10.954;2023-03-01T17:43:37;22.92;;;12.23;;
63693;SDS011;49839;51.798;10.954;2023-03-01T17:46:04;33.08;;;14.27;;
63693;SDS011;49839;51.798;10.954;2023-03-01T17:48:32;26.52;;;13.43;;
63693;SDS011;49839;51.798;10.954;2023-03-01T17:51:04;26.05;;;11.90;;
63693;SDS011;49839;51.798;10.954;2023-03-01T17:53:31;20.88;;;10.77;;
63693;SDS011;49839;51.798;10.954;2023-03-01T17:55:59;20.55;;;10.60;;
63693;SDS011;49839;51.798;10.954;2023-03-01T17:58:28;19.10;;;11.10;;
63693;SDS011;49839;51.798;10.954;2023-03-01T18:01:05;19.90;;;11.60;;
63693;SDS011;49839;51.798;10.954;2023-03-01T18:03:32;17.50;;;9.38;;
63693;SDS011;49839;51.798;10.954;2023-03-01T18:06:00;18.67;;;9.02;;
63693;SDS011;49839;51.798;10.954;2023-03-01T18:08:27;13.57;;;7.43;;
63693;SDS011;49839;51.798;10.954;2023-03-01T18:10:57;16.00;;;7.88;;
63693;SDS011;49839;51.798;10.954;2023-03-01T18:13:24;15.02;;;7.13;;
63693;SDS011;49839;51.798;10.954;2023-03-01T18:15:53;15.82;;;7.63;;
63693;SDS011;49839;51.798;10.954;2023-03-01T18:18:26;11.73;;;7.15;;
63693;SDS011;49839;51.798;10.954;2023-03-01T18:20:56;14.10;;;7.63;;
63693;SDS011;49839;51.798;10.954;2023-03-01T18:23:24;13.57;;;7.07;;
63693;SDS011;49839;51.798;10.954;2023-03-01T18:25:56;13.93;;;8.00;;
63693;SDS011;49839;51.798;10.954;2023-03-01T18:28:23;21.15;;;9.93;;
63693;SDS011;49839;51.798;10.954;2023-03-01T18:30:55;17.27;;;8.45;;
63693;SDS011;49839;51.798;10.954;2023-03-01T18:33:23;16.90;;;8.65;;
63693;SDS011;49839;51.798;10.954;2023-03-01T18:35:52;15.10;;;8.40;;
63693;SDS011;49839;51.798;10.954;2023-03-01T18:38:20;15.02;;;7.88;;
63693;SDS011;49839;51.798;10.954;2023-03-01T18:40:47;15.75;;;7.57;;
63693;SDS011;49839;51.798;10.954;2023-03-01T18:43:15;21.40;;;9.05;;
63693;SDS011;49839;51.798;10.954;2023-03-01T18:45:42;18.95;;;8.35;;
63693;SDS011;49839;51.798;10.954;2023-03-01T18:48:12;17.52;;;8.07;;
63693;SDS011;49839;51.798;10.954;2023-03-01T18:50:40;20.05;;;8.00;;
63693;SDS011;49839;51.798;10.954;2023-03-01T18:53:07;17.13;;;7.72;;
63693;SDS011;49839;51.798;10.954;2023-03-01T18:55:35;12.95;;;6.32;;
63693;SDS011;49839;51.798;10.954;2023-03-01T18:58:02;16.05;;;7.15;;
63693;SDS011;49839;51.798;10.954;2023-03-01T19:00:30;13.15;;;7.35;;
63693;SDS011;49839;51.798;10.954;2023-03-01T19:02:57;12.80;;;7.07;;
63693;SDS011;49839;51.798;10.954;2023-03-01T19:05:27;15.40;;;7.03;;
63693;SDS011;49839;51.798;10.954;2023-03-01T19:07:55;15.38;;;7.45;;
63693;SDS011;49839;51.798;10.954;2023-03-01T19:10:22;10.63;;;5.70;;
63693;SDS011;49839;51.798;10.954;2023-03-01T19:12:50;14.15;;;7.28;;
63693;SDS011;49839;51.798;10.954;2023-03-01T19:15:17;12.63;;;6.13;;
63693;SDS011;49839;51.798;10.954;2023-03-01T19:17:48;11.00;;;5.78;;
63693;SDS011;49839;51.798;10.954;2023-03-01T19:20:19;13.07;;;6.65;;
63693;SDS011;49839;51.798;10.954;2023-03-01T19:22:49;14.88;;;8.25;;
63693;SDS011;49839;51.798;10.954;2023-03-01T19:25:16;12.77;;;6.63;;
63693;SDS011;49839;51.798;10.954;2023-03-01T19:27:44;16.02;;;7.88;;
63693;SDS011;49839;51.798;10.954;2023-03-01T19:32:41;13.13;;;6.55;;
63693;SDS011;49839;51.798;10.954;2023-03-01T19:35:08;17.63;;;7.97;;
63693;SDS011;49839;51.798;10.954;2023-03-01T19:37:36;15.40;;;7.13;;
63693;SDS011;49839;51.798;10.954;2023-03-01T19:40:05;15.23;;;7.68;;
63693;SDS011;49839;51.798;10.954;2023-03-01T19:45:00;18.65;;;7.97;;
63693;SDS011;49839;51.798;10.954;2023-03-01T19:47:28;19.98;;;9.07;;
63693;SDS011;49839;51.798;10.954;2023-03-01T19:49:55;18.77;;;7.63;;
63693;SDS011;49839;51.798;10.954;2023-03-01T19:52:25;17.02;;;9.68;;
63693;SDS011;49839;51.798;10.954;2023-03-01T19:54:53;19.15;;;9.77;;
63693;SDS011;49839;51.798;10.954;2023-03-01T19:57:35;14.23;;;8.02;;
63693;SDS011;49839;51.798;10.954;2023-03-01T20:00:03;13.10;;;7.15;;
63693;SDS011;49839;51.798;10.954;2023-03-01T20:02:30;14.32;;;7.70;;
63693;SDS011;49839;51.798;10.954;2023-03-01T20:04:58;15.82;;;7.82;;
63693;SDS011;49839;51.798;10.954;2023-03-01T20:07:26;15.68;;;7.25;;
63693;SDS011;49839;51.798;10.954;2023-03-01T20:09:56;15.15;;;8.38;;
63693;SDS011;49839;51.798;10.954;2023-03-01T20:12:23;18.20;;;7.95;;
63693;SDS011;49839;51.798;10.954;2023-03-01T20:14:55;14.48;;;6.75;;
63693;SDS011;49839;51.798;10.954;2023-03-01T20:17:26;12.93;;;6.25;;
63693;SDS011;49839;51.798;10.954;2023-03-01T20:19:53;14.65;;;7.25;;
63693;SDS011;49839;51.798;10.954;2023-03-01T20:22:21;12.48;;;7.13;;
63693;SDS011;49839;51.798;10.954;2023-03-01T20:24:48;14.30;;;6.35;;
63693;SDS011;49839;51.798;10.954;2023-03-01T20:27:16;10.65;;;5.22;;
63693;SDS011;49839;51.798;10.954;2023-03-01T20:29:46;10.55;;;5.30;;
63693;SDS011;49839;51.798;10.954;2023-03-01T20:32:14;12.38;;;5.70;;
63693;SDS011;49839;51.798;10.954;2023-03-01T20:34:42;8.40;;;4.87;;
63693;SDS011;49839;51.798;10.954;2023-03-01T20:37:09;8.80;;;4.57;;
63693;SDS011;49839;51.798;10.954;2023-03-01T20:39:38;10.30;;;5.22;;
63693;SDS011;49839;51.798;10.954;2023-03-01T20:44:35;11.38;;;5.70;;
63693;SDS011;49839;51.798;10.954;2023-03-01T20:47:08;12.77;;;4.68;;
63693;SDS011;49839;51.798;10.954;2023-03-01T20:49:39;12.02;;;6.30;;
63693;SDS011;49839;51.798;10.954;2023-03-01T20:52:07;13.57;;;5.60;;
63693;SDS011;49839;51.798;10.954;2023-03-01T20:54:34;11.68;;;6.30;;
63693;SDS011;49839;51.798;10.954;2023-03-01T20:57:05;11.52;;;5.50;;
63693;SDS011;49839;51.798;10.954;2023-03-01T20:59:33;10.90;;;4.85;;
63693;SDS011;49839;51.798;10.954;2023-03-01T21:02:03;10.07;;;5.05;;
63693;SDS011;49839;51.798;10.954;2023-03-01T21:04:30;11.18;;;5.30;;
63693;SDS011;49839;51.798;10.954;2023-03-01T21:07:02;12.55;;;5.40;;
63693;SDS011;49839;51.798;10.954;2023-03-01T21:09:29;10.68;;;5.30;;
63693;SDS011;49839;51.798;10.954;2023-03-01T21:11:58;12.93;;;6.10;;
63693;SDS011;49839;51.798;10.954;2023-03-01T21:14:26;10.55;;;4.90;;
63693;SDS011;49839;51.798;10.954;2023-03-01T21:17:07;14.80;;;6.03;;
63693;SDS011;49839;51.798;10.954;2023-03-01T21:19:35;16.48;;;5.63;;
63693;SDS011;49839;51.798;10.954;2023-03-01T21:22:04;9.13;;;4.70;;
63693;SDS011;49839;51.798;10.954;2023-03-01T21:24:32;9.75;;;4.88;;
63693;SDS011;49839;51.798;10.954;2023-03-01T21:26:59;8.40;;;4.35;;
63693;SDS011;49839;51.798;10.954;2023-03-01T21:29:31;12.43;;;4.63;;
63693;SDS011;49839;51.798;10.954;2023-03-01T21:31:59;11.35;;;4.43;;
63693;SDS011;49839;51.798;10.954;2023-03-01T21:34:30;7.03;;;3.65;;
63693;SDS011;49839;51.798;10.954;2023-03-01T21:36:57;8.75;;;4.30;;
63693;SDS011;49839;51.798;10.954;2023-03-01T21:39:26;8.63;;;4.60;;
63693;SDS011;49839;51.798;10.954;2023-03-01T21:41:55;8.63;;;3.95;;
63693;SDS011;49839;51.798;10.954;2023-03-01T21:44:22;9.05;;;4.28;;
63693;SDS011;49839;51.798;10.954;2023-03-01T21:46:50;10.27;;;4.70;;
63693;SDS011;49839;51.798;10.954;2023-03-01T21:49:20;9.93;;;4.10;;
63693;SDS011;49839;51.798;10.954;2023-03-01T21:51:49;11.25;;;4.30;;
63693;SDS011;49839;51.798;10.954;2023-03-01T21:54:17;10.95;;;4.78;;
63693;SDS011;49839;51.798;10.954;2023-03-01T21:56:52;9.25;;;4.43;;
63693;SDS011;49839;51.798;10.954;2023-03-01T21:59:22;9.07;;;4.57;;
63693;SDS011;49839;51.798;10.954;2023-03-01T22:01:49;11.43;;;5.00;;
63693;SDS011;49839;51.798;10.954;2023-03-01T22:04:17;12.52;;;6.35;;
63693;SDS011;49839;51.798;10.954;2023-03-01T22:06:48;19.45;;;9.05;;
63693;SDS011;49839;51.798;10.954;2023-03-01T22:09:20;23.23;;;8.15;;
63693;SDS011;49839;51.798;10.954;2023-03-01T22:11:51;23.63;;;8.45;;
63693;SDS011;49839;51.798;10.954;2023-03-01T22:14:20;16.90;;;7.15;;
63693;SDS011;49839;51.798;10.954;2023-03-01T22:16:49;13.00;;;5.90;;
63693;SDS011;49839;51.798;10.954;2023-03-01T22:19:18;13.13;;;6.03;;
63693;SDS011;49839;51.798;10.954;2023-03-01T22:21:46;12.40;;;5.65;;
63693;SDS011;49839;51.798;10.954;2023-03-01T22:24:16;11.30;;;5.38;;
63693;SDS011;49839;51.798;10.954;2023-03-01T22:26:44;10.70;;;5.03;;
63693;SDS011;49839;51.798;10.954;2023-03-01T22:29:15;8.90;;;4.43;;
63693;SDS011;49839;51.798;10.954;2023-03-01T22:31:46;10.18;;;4.53;;
63693;SDS011;49839;51.798;10.954;2023-03-01T22:34:14;9.25;;;3.90;;
63693;SDS011;49839;51.798;10.954;2023-03-01T22:36:42;9.75;;;4.10;;
63693;SDS011;49839;51.798;10.954;2023-03-01T22:39:10;10.80;;;4.40;;
63693;SDS011;49839;51.798;10.954;2023-03-01T22:41:42;8.63;;;4.15;;
63693;SDS011;49839;51.798;10.954;2023-03-01T22:44:12;11.82;;;5.10;;
63693;SDS011;49839;51.798;10.954;2023-03-01T22:46:40;12.68;;;5.68;;
63693;SDS011;49839;51.798;10.954;2023-03-01T22:49:14;12.00;;;4.85;;
63693;SDS011;49839;51.798;10.954;2023-03-01T22:51:45;12.05;;;4.68;;
63693;SDS011;49839;51.798;10.954;2023-03-01T22:54:14;8.38;;;3.60;;
63693;SDS011;49839;51.798;10.954;2023-03-01T22:56:42;8.38;;;3.53;;
63693;SDS011;49839;51.798;10.954;2023-03-01T22:59:10;8.38;;;3.28;;